createdAt,value
2022-12-11T00:00:55.555Z,11.45
2022-12-11T00:01:57.129Z,12.07
2022-12-11T00:02:58.741Z,11.50
2022-12-11T00:04:00.352Z,12.15
2022-12-11T00:05:01.903Z,11.00
2022-12-11T00:06:08.231Z,11.70
2022-12-11T00:07:09.811Z,10.40
2022-12-11T00:08:11.980Z,10.65
2022-12-11T00:09:13.640Z,11.48
2022-12-11T00:10:15.347Z,10.77
2022-12-11T00:11:17.112Z,10.70
2022-12-11T00:12:18.673Z,10.75
2022-12-11T00:13:20.239Z,10.18
2022-12-11T00:14:21.855Z,9.82
2022-12-11T00:15:23.513Z,10.15
2022-12-11T00:16:27.049Z,8.63
2022-12-11T00:17:29.002Z,9.50
2022-12-11T00:18:30.623Z,9.77
2022-12-11T00:19:32.254Z,9.80
2022-12-11T00:20:33.824Z,8.90
2022-12-11T00:21:35.463Z,10.13
2022-12-11T00:22:37.150Z,9.43
2022-12-11T00:23:38.741Z,9.02
2022-12-11T00:24:40.392Z,9.43
2022-12-11T00:25:44.038Z,9.30
2022-12-11T00:26:45.727Z,8.93
2022-12-11T00:27:47.594Z,8.75
2022-12-11T00:28:52.997Z,8.70
2022-12-11T00:29:54.565Z,8.73
2022-12-11T00:30:56.168Z,7.90
2022-12-11T00:31:57.881Z,8.68
2022-12-11T00:32:59.453Z,7.60
2022-12-11T00:34:01.712Z,8.57
2022-12-11T00:35:03.368Z,8.38
2022-12-11T00:36:13.178Z,8.43
2022-12-11T00:37:14.923Z,7.55
2022-12-11T00:38:17.820Z,8.27
2022-12-11T00:39:19.415Z,7.85
2022-12-11T00:40:21.089Z,7.93
2022-12-11T00:41:22.729Z,8.90
2022-12-11T00:42:24.312Z,8.23
2022-12-11T00:43:25.931Z,7.45
2022-12-11T00:44:27.621Z,8.93
2022-12-11T00:45:29.210Z,8.68
2022-12-11T00:46:30.788Z,7.78
2022-12-11T00:47:32.498Z,8.10
2022-12-11T00:48:34.085Z,8.43
2022-12-11T00:49:35.808Z,8.18
2022-12-11T00:50:37.600Z,7.43
2022-12-11T00:51:39.203Z,7.73
2022-12-11T00:52:40.806Z,7.38
2022-12-11T00:53:42.526Z,9.02
2022-12-11T00:54:44.119Z,7.00
2022-12-11T00:55:45.700Z,7.32
2022-12-11T00:56:47.299Z,7.65
2022-12-11T00:57:51.713Z,7.22
2022-12-11T00:58:53.361Z,8.05
2022-12-11T00:59:54.947Z,7.75
2022-12-11T01:00:56.590Z,7.25
2022-12-11T01:01:58.255Z,7.67
2022-12-11T01:02:59.905Z,6.13
2022-12-11T01:04:01.600Z,6.28
2022-12-11T01:05:03.290Z,6.90
2022-12-11T01:06:05.222Z,8.20
2022-12-11T01:07:06.849Z,6.72
2022-12-11T01:08:08.455Z,6.72
2022-12-11T01:09:36.237Z,6.53
2022-12-11T01:10:37.866Z,6.88
2022-12-11T01:11:39.766Z,7.03
2022-12-11T01:12:41.416Z,7.18
2022-12-11T01:13:43.149Z,7.18
2022-12-11T01:14:44.720Z,8.23
2022-12-11T01:15:46.311Z,8.48
2022-12-11T01:16:47.970Z,8.02
2022-12-11T01:17:50.389Z,7.97
2022-12-11T01:18:51.979Z,8.50
2022-12-11T01:19:54.524Z,8.23
2022-12-11T01:20:56.135Z,7.80
2022-12-11T01:21:57.786Z,8.23
2022-12-11T01:23:00.115Z,8.88
2022-12-11T01:24:01.689Z,8.07
2022-12-11T01:25:03.291Z,8.48
2022-12-11T01:26:09.069Z,8.25
2022-12-11T01:27:10.697Z,8.75
2022-12-11T01:28:12.286Z,8.43
2022-12-11T01:29:13.865Z,7.95
2022-12-11T01:30:15.465Z,8.57
2022-12-11T01:31:17.715Z,8.38
2022-12-11T01:32:19.454Z,8.02
2022-12-11T01:33:21.041Z,8.95
2022-12-11T01:34:22.614Z,7.95
2022-12-11T01:35:24.171Z,9.15
2022-12-11T01:36:25.764Z,8.45
2022-12-11T01:37:27.398Z,9.02
2022-12-11T01:38:28.980Z,9.38
2022-12-11T01:39:30.905Z,8.77
2022-12-11T01:40:32.860Z,8.35
2022-12-11T01:41:34.540Z,8.95
2022-12-11T01:42:36.123Z,8.23
2022-12-11T01:43:56.567Z,9.25
2022-12-11T01:45:33.706Z,8.48
2022-12-11T01:46:36.315Z,7.20
2022-12-11T01:47:37.878Z,7.90
2022-12-11T01:48:42.401Z,7.60
2022-12-11T01:49:44.183Z,7.65
2022-12-11T01:51:06.132Z,8.20
2022-12-11T01:52:10.272Z,8.20
2022-12-11T01:53:13.845Z,7.85
2022-12-11T01:54:15.482Z,7.95
2022-12-11T01:55:18.295Z,8.07
2022-12-11T01:56:19.879Z,7.93
2022-12-11T01:57:21.429Z,8.13
2022-12-11T01:58:23.910Z,8.13
2022-12-11T01:59:27.056Z,7.85
2022-12-11T02:00:28.752Z,7.57
2022-12-11T02:01:55.159Z,7.95
2022-12-11T02:02:56.729Z,7.53
2022-12-11T02:03:58.378Z,8.07
2022-12-11T02:05:01.568Z,8.13
2022-12-11T02:06:03.717Z,7.80
2022-12-11T02:07:05.787Z,7.90
2022-12-11T02:08:09.086Z,8.50
2022-12-11T02:09:12.705Z,8.52
2022-12-11T02:10:14.330Z,8.20
2022-12-11T02:11:20.971Z,8.40
2022-12-11T02:12:57.951Z,9.23
2022-12-11T02:14:09.229Z,8.45
2022-12-11T02:15:17.909Z,9.35
2022-12-11T02:16:20.178Z,9.35
2022-12-11T02:17:35.683Z,9.90
2022-12-11T02:18:42.562Z,10.02
2022-12-11T02:19:53.045Z,10.80
2022-12-11T02:21:02.590Z,10.30
2022-12-11T02:22:06.155Z,9.00
2022-12-11T02:23:13.457Z,10.38
2022-12-11T02:24:15.065Z,11.55
2022-12-11T02:25:37.183Z,10.43
2022-12-11T02:27:11.069Z,10.95
2022-12-11T02:28:19.200Z,11.50
2022-12-11T02:29:33.549Z,11.85
2022-12-11T02:30:35.186Z,11.75
2022-12-11T02:31:39.789Z,11.40
2022-12-11T02:33:10.735Z,12.38
2022-12-11T02:34:23.866Z,11.27
2022-12-11T02:35:35.718Z,12.10
2022-12-11T02:36:40.390Z,11.88
2022-12-11T02:37:42.605Z,12.25
2022-12-11T02:38:46.916Z,13.05
2022-12-11T02:39:49.139Z,12.90
2022-12-11T02:40:50.715Z,13.10
2022-12-11T02:41:52.526Z,12.70
2022-12-11T02:42:54.393Z,13.38
2022-12-11T02:43:56.627Z,13.27
2022-12-11T02:44:58.909Z,13.68
2022-12-11T02:46:00.542Z,12.57
2022-12-11T02:47:03.361Z,14.07
2022-12-11T02:48:05.988Z,13.60
2022-12-11T02:49:07.625Z,12.85
2022-12-11T02:50:11.569Z,14.50
2022-12-11T02:51:14.355Z,13.45
2022-12-11T02:52:17.167Z,14.25
2022-12-11T02:53:20.455Z,13.70
2022-12-11T02:54:30.063Z,14.27
2022-12-11T02:55:31.641Z,13.98
2022-12-11T02:56:36.903Z,14.82
2022-12-11T02:57:44.080Z,14.25
2022-12-11T02:58:48.103Z,14.05
2022-12-11T02:59:49.755Z,14.37
2022-12-11T03:00:51.346Z,15.48
2022-12-11T03:01:52.934Z,15.52
2022-12-11T03:02:54.590Z,13.75
2022-12-11T03:03:56.460Z,16.02
2022-12-11T03:04:59.550Z,14.88
2022-12-11T03:06:01.119Z,15.32
2022-12-11T03:07:12.442Z,14.20
2022-12-11T03:08:17.480Z,14.10
2022-12-11T03:09:19.220Z,14.10
2022-12-11T03:10:20.929Z,14.35
2022-12-11T03:11:22.513Z,13.00
2022-12-11T03:12:31.749Z,14.73
2022-12-11T03:13:33.324Z,14.07
2022-12-11T03:14:35.650Z,12.70
2022-12-11T03:15:42.037Z,13.98
2022-12-11T03:16:56.782Z,13.82
2022-12-11T03:18:04.417Z,13.27
2022-12-11T03:19:14.586Z,13.00
2022-12-11T03:20:39.136Z,12.10
2022-12-11T03:21:49.695Z,11.77
2022-12-11T03:23:24.620Z,12.50
2022-12-11T03:24:30.141Z,11.90
2022-12-11T03:25:59.865Z,11.95
2022-12-11T03:27:11.326Z,12.95
2022-12-11T03:28:15.774Z,11.48
2022-12-11T03:29:23.567Z,11.40
2022-12-11T03:30:27.253Z,11.38
2022-12-11T03:31:30.961Z,12.25
2022-12-11T03:32:38.157Z,11.60
2022-12-11T03:33:41.610Z,12.07
2022-12-11T03:34:54.540Z,12.07
2022-12-11T03:36:03.577Z,12.52
2022-12-11T03:37:05.535Z,12.90
2022-12-11T03:38:10.334Z,11.40
2022-12-11T03:39:15.689Z,11.53
2022-12-11T03:40:17.967Z,11.70
2022-12-11T03:41:21.513Z,12.30
2022-12-11T03:42:23.081Z,13.50
2022-12-11T03:43:25.271Z,12.93
2022-12-11T03:44:27.490Z,13.00
2022-12-11T03:45:29.151Z,13.40
2022-12-11T03:46:32.297Z,13.80
2022-12-11T03:47:33.946Z,14.03
2022-12-11T03:48:37.247Z,14.20
2022-12-11T03:49:40.325Z,13.38
2022-12-11T03:50:41.961Z,13.93
2022-12-11T03:51:43.572Z,14.68
2022-12-11T03:52:46.386Z,13.52
2022-12-11T03:53:48.024Z,11.60
2022-12-11T03:54:49.723Z,13.60
2022-12-11T03:55:51.369Z,13.90
2022-12-11T03:56:54.913Z,13.23
2022-12-11T03:57:56.538Z,13.93
2022-12-11T03:58:58.110Z,13.32
2022-12-11T03:59:59.762Z,14.38
2022-12-11T04:01:01.355Z,14.38
2022-12-11T04:02:10.718Z,15.48
2022-12-11T04:03:15.908Z,13.35
2022-12-11T04:04:17.584Z,13.77
2022-12-11T04:05:19.319Z,13.32
2022-12-11T04:06:20.895Z,14.10
2022-12-11T04:07:22.599Z,14.38
2022-12-11T04:08:24.287Z,13.07
2022-12-11T04:09:25.925Z,13.05
2022-12-11T04:10:27.558Z,11.77
2022-12-11T04:11:34.761Z,12.80
2022-12-11T04:12:36.398Z,13.20
2022-12-11T04:13:38.387Z,12.63
2022-12-11T04:15:00.619Z,13.13
2022-12-11T04:16:02.256Z,12.77
2022-12-11T04:17:03.882Z,11.95
2022-12-11T04:18:24.516Z,12.93
2022-12-11T04:19:44.944Z,12.68
2022-12-11T04:21:18.805Z,11.75
2022-12-11T04:22:38.952Z,11.95
2022-12-11T04:23:59.332Z,11.35
2022-12-11T04:25:05.282Z,12.63
2022-12-11T04:26:11.799Z,12.65
2022-12-11T04:27:13.361Z,12.50
2022-12-11T04:28:14.934Z,12.97
2022-12-11T04:29:16.585Z,12.90
2022-12-11T04:30:23.107Z,11.93
2022-12-11T04:31:24.783Z,11.65
2022-12-11T04:32:26.362Z,11.95
2022-12-11T04:33:27.965Z,12.13
2022-12-11T04:34:29.780Z,14.10
2022-12-11T04:35:31.429Z,13.02
2022-12-11T04:36:33.068Z,13.70
2022-12-11T04:37:34.734Z,12.63
2022-12-11T04:38:36.490Z,11.50
2022-12-11T04:39:38.109Z,12.25
2022-12-11T04:40:39.684Z,11.75
2022-12-11T04:41:41.743Z,10.60
2022-12-11T04:42:43.473Z,12.18
2022-12-11T04:43:47.664Z,12.13
2022-12-11T04:44:49.264Z,12.63
2022-12-11T04:45:50.897Z,12.30
2022-12-11T04:46:52.557Z,13.48
2022-12-11T04:47:54.261Z,11.85
2022-12-11T04:48:57.873Z,11.57
2022-12-11T04:49:59.823Z,12.70
2022-12-11T04:51:01.463Z,12.05
2022-12-11T04:52:03.293Z,11.73
2022-12-11T04:53:04.909Z,10.95
2022-12-11T04:54:06.486Z,10.95
2022-12-11T04:55:09.131Z,10.60
2022-12-11T04:56:12.745Z,11.00
2022-12-11T04:57:15.567Z,10.30
2022-12-11T04:58:17.242Z,10.45
2022-12-11T04:59:18.869Z,10.27
2022-12-11T05:00:20.465Z,9.38
2022-12-11T05:01:22.645Z,9.95
2022-12-11T05:02:24.996Z,10.23
2022-12-11T05:03:26.660Z,9.48
2022-12-11T05:04:32.716Z,9.52
2022-12-11T05:05:34.289Z,8.93
2022-12-11T05:06:35.885Z,8.43
2022-12-11T05:07:38.008Z,9.13
2022-12-11T05:08:40.413Z,8.60
2022-12-11T05:09:42.008Z,9.25
2022-12-11T05:10:49.860Z,8.73
2022-12-11T05:11:52.157Z,8.33
2022-12-11T05:12:53.790Z,7.50
2022-12-11T05:13:55.368Z,8.10
2022-12-11T05:14:56.940Z,7.63
2022-12-11T05:15:58.643Z,7.68
2022-12-11T05:17:00.402Z,8.07
2022-12-11T05:18:02.041Z,7.43
2022-12-11T05:19:03.739Z,8.77
2022-12-11T05:20:05.862Z,7.72
2022-12-11T05:21:09.302Z,8.80
2022-12-11T05:22:10.931Z,8.57
2022-12-11T05:23:12.553Z,8.15
2022-12-11T05:24:14.130Z,8.52
2022-12-11T05:25:15.767Z,8.68
2022-12-11T05:26:18.716Z,8.70
2022-12-11T05:27:21.013Z,8.07
2022-12-11T05:28:22.777Z,8.82
2022-12-11T05:29:24.340Z,9.60
2022-12-11T05:30:26.476Z,8.55
2022-12-11T05:31:28.228Z,8.77
2022-12-11T05:32:29.871Z,8.82
2022-12-11T05:33:31.546Z,9.90
2022-12-11T05:34:33.203Z,9.77
2022-12-11T05:35:34.808Z,9.05
2022-12-11T05:36:36.454Z,9.50
2022-12-11T05:37:38.052Z,8.95
2022-12-11T05:38:39.646Z,9.95
2022-12-11T05:39:41.269Z,10.77
2022-12-11T05:40:42.903Z,8.88
2022-12-11T05:41:44.480Z,9.30
2022-12-11T05:42:46.068Z,8.45
2022-12-11T05:43:47.768Z,9.82
2022-12-11T05:44:49.763Z,10.77
2022-12-11T05:45:51.349Z,10.73
2022-12-11T05:46:53.035Z,10.25
2022-12-11T05:47:54.740Z,13.15
2022-12-11T05:48:58.278Z,13.27
2022-12-11T05:50:00.121Z,10.70
2022-12-11T05:51:02.020Z,10.15
2022-12-11T05:52:03.643Z,10.35
2022-12-11T05:53:05.663Z,10.63
2022-12-11T05:54:07.583Z,10.02
2022-12-11T05:55:09.588Z,10.48
2022-12-11T05:56:16.063Z,10.07
2022-12-11T05:57:17.728Z,10.80
2022-12-11T05:58:19.863Z,11.02
2022-12-11T05:59:21.666Z,9.80
2022-12-11T06:00:23.243Z,10.88
2022-12-11T06:01:26.860Z,11.05
2022-12-11T06:02:28.575Z,10.25
2022-12-11T06:03:30.230Z,10.13
2022-12-11T06:04:32.078Z,10.30
2022-12-11T06:05:38.312Z,10.43
2022-12-11T06:06:40.521Z,9.93
2022-12-11T06:07:42.233Z,9.57
2022-12-11T06:08:43.853Z,11.20
2022-12-11T06:09:45.431Z,10.65
2022-12-11T06:10:49.959Z,10.30
2022-12-11T06:11:51.542Z,9.88
2022-12-11T06:12:53.115Z,9.95
2022-12-11T06:13:54.801Z,8.77
2022-12-11T06:14:56.583Z,9.38
2022-12-11T06:16:04.953Z,8.95
2022-12-11T06:17:07.034Z,9.70
2022-12-11T06:18:08.669Z,8.75
2022-12-11T06:19:18.346Z,9.55
2022-12-11T06:20:19.979Z,9.80
2022-12-11T06:21:23.412Z,9.63
2022-12-11T06:22:25.006Z,10.17
2022-12-11T06:23:26.638Z,9.68
2022-12-11T06:24:28.200Z,9.32
2022-12-11T06:25:29.923Z,10.10
2022-12-11T06:26:32.151Z,9.18
2022-12-11T06:27:33.852Z,8.88
2022-12-11T06:28:35.517Z,10.43
2022-12-11T06:29:37.096Z,9.65
2022-12-11T06:30:39.684Z,10.57
2022-12-11T06:31:41.404Z,9.57
2022-12-11T06:32:43.697Z,8.73
2022-12-11T06:33:45.434Z,9.05
2022-12-11T06:34:47.086Z,9.38
2022-12-11T06:35:48.880Z,8.35
2022-12-11T06:36:50.446Z,8.40
2022-12-11T06:37:52.113Z,8.10
2022-12-11T06:38:53.755Z,8.60
2022-12-11T06:39:55.332Z,8.68
2022-12-11T06:40:58.147Z,8.13
2022-12-11T06:41:59.718Z,8.27
2022-12-11T06:43:01.300Z,8.35
2022-12-11T06:44:02.909Z,9.25
2022-12-11T06:45:04.963Z,9.13
2022-12-11T06:46:14.146Z,8.52
2022-12-11T06:47:15.778Z,8.43
2022-12-11T06:48:17.821Z,9.18
2022-12-11T06:49:19.732Z,7.40
2022-12-11T06:50:21.314Z,8.65
2022-12-11T06:51:23.129Z,7.60
2022-12-11T06:52:25.595Z,7.53
2022-12-11T06:53:27.214Z,7.97
2022-12-11T06:54:28.851Z,8.53
2022-12-11T06:55:30.453Z,8.68
2022-12-11T06:56:34.413Z,8.30
2022-12-11T06:57:35.989Z,7.70
2022-12-11T06:58:37.786Z,7.80
2022-12-11T06:59:39.348Z,7.75
2022-12-11T07:00:41.048Z,7.93
2022-12-11T07:01:42.758Z,7.68
2022-12-11T07:02:44.339Z,7.15
2022-12-11T07:03:46.051Z,7.93
2022-12-11T07:04:53.349Z,8.50
2022-12-11T07:06:02.640Z,7.05
2022-12-11T07:07:04.274Z,7.72
2022-12-11T07:08:07.382Z,7.45
2022-12-11T07:09:10.146Z,8.20
2022-12-11T07:10:11.978Z,6.43
2022-12-11T07:11:15.223Z,7.53
2022-12-11T07:12:17.096Z,7.07
2022-12-11T07:13:18.748Z,7.53
2022-12-11T07:14:20.513Z,7.88
2022-12-11T07:15:22.092Z,7.80
2022-12-11T07:16:23.823Z,7.45
2022-12-11T07:17:25.482Z,7.03
2022-12-11T07:18:27.285Z,7.13
2022-12-11T07:19:28.968Z,7.30
2022-12-11T07:20:30.649Z,6.88
2022-12-11T07:21:32.289Z,7.15
2022-12-11T07:22:33.893Z,7.88
2022-12-11T07:23:35.700Z,7.00
2022-12-11T07:24:37.302Z,5.57
2022-12-11T07:25:38.969Z,6.30
2022-12-11T07:26:40.738Z,5.95
2022-12-11T07:27:42.324Z,6.32
2022-12-11T07:28:43.927Z,6.68
2022-12-11T07:29:45.580Z,7.30
2022-12-11T07:30:47.110Z,6.63
2022-12-11T07:31:48.746Z,7.22
2022-12-11T07:32:50.377Z,5.68
2022-12-11T07:33:55.452Z,5.97
2022-12-11T07:34:57.017Z,5.90
2022-12-11T07:36:04.821Z,6.07
2022-12-11T07:37:06.402Z,6.03
2022-12-11T07:38:08.626Z,6.50
2022-12-11T07:39:11.943Z,7.00
2022-12-11T07:40:14.122Z,7.10
2022-12-11T07:41:15.837Z,7.05
2022-12-11T07:42:17.499Z,6.90
2022-12-11T07:43:19.106Z,6.30
2022-12-11T07:44:20.783Z,6.38
2022-12-11T07:45:22.474Z,5.72
2022-12-11T07:46:26.084Z,6.25
2022-12-11T07:47:27.723Z,6.07
2022-12-11T07:48:29.450Z,6.47
2022-12-11T07:49:31.327Z,5.40
2022-12-11T07:50:39.473Z,6.63
2022-12-11T07:51:42.622Z,6.60
2022-12-11T07:52:44.605Z,5.93
2022-12-11T07:53:48.646Z,6.43
2022-12-11T07:54:50.297Z,6.78
2022-12-11T07:55:51.869Z,6.05
2022-12-11T07:56:54.145Z,5.90
2022-12-11T07:57:55.936Z,5.72
2022-12-11T07:59:03.078Z,6.30
2022-12-11T08:00:05.423Z,6.37
2022-12-11T08:01:14.621Z,7.35
2022-12-11T08:02:16.348Z,5.90
2022-12-11T08:03:18.030Z,7.40
2022-12-11T08:04:19.705Z,5.75
2022-12-11T08:05:21.403Z,6.80
2022-12-11T08:06:30.469Z,6.45
2022-12-11T08:07:34.944Z,5.90
2022-12-11T08:08:36.621Z,6.50
2022-12-11T08:09:38.300Z,5.90
2022-12-11T08:10:39.871Z,7.65
2022-12-11T08:11:41.538Z,6.15
2022-12-11T08:12:43.114Z,6.30
2022-12-11T08:13:44.718Z,6.32
2022-12-11T08:14:46.322Z,5.90
2022-12-11T08:15:48.990Z,5.90
2022-12-11T08:16:50.772Z,6.50
2022-12-11T08:17:52.397Z,5.93
2022-12-11T08:18:53.969Z,6.68
2022-12-11T08:19:55.591Z,6.13
2022-12-11T08:20:57.182Z,5.93
2022-12-11T08:21:58.873Z,5.90
2022-12-11T08:23:00.450Z,6.47
2022-12-11T08:24:02.169Z,6.75
2022-12-11T08:25:04.140Z,6.13
2022-12-11T08:26:07.014Z,5.40
2022-12-11T08:27:08.668Z,5.68
2022-12-11T08:28:10.253Z,5.70
2022-12-11T08:29:11.839Z,6.00
2022-12-11T08:30:13.770Z,5.30
2022-12-11T08:31:15.645Z,5.43
2022-12-11T08:32:18.191Z,5.78
2022-12-11T08:33:20.022Z,5.22
2022-12-11T08:34:21.655Z,5.43
2022-12-11T08:35:23.435Z,5.30
2022-12-11T08:36:25.119Z,5.32
2022-12-11T08:37:26.714Z,5.10
2022-12-11T08:38:28.292Z,4.75
2022-12-11T08:39:30.358Z,4.40
2022-12-11T08:40:32.257Z,5.05
2022-12-11T08:41:34.122Z,4.60
2022-12-11T08:42:35.732Z,4.72
2022-12-11T08:43:37.806Z,4.75
2022-12-11T08:44:39.762Z,4.00
2022-12-11T08:45:41.394Z,4.55
2022-12-11T08:46:43.000Z,4.70
2022-12-11T08:47:44.573Z,4.93
2022-12-11T08:48:46.164Z,4.05
2022-12-11T08:49:49.172Z,4.38
2022-12-11T08:50:53.278Z,4.30
2022-12-11T08:51:54.891Z,4.05
2022-12-11T08:52:56.520Z,5.13
2022-12-11T08:53:58.986Z,5.07
2022-12-11T08:55:00.667Z,4.95
2022-12-11T08:56:07.433Z,4.10
2022-12-11T08:57:09.024Z,4.85
2022-12-11T08:58:10.604Z,4.60
2022-12-11T08:59:12.218Z,4.20
2022-12-11T09:00:15.349Z,4.68
2022-12-11T09:01:19.231Z,4.80
2022-12-11T09:02:21.009Z,3.90
2022-12-11T09:03:22.672Z,4.57
2022-12-11T09:04:24.259Z,4.30
2022-12-11T09:05:25.905Z,5.38
2022-12-11T09:06:29.119Z,5.00
2022-12-11T09:07:30.768Z,5.07
2022-12-11T09:08:32.522Z,5.30
2022-12-11T09:09:34.167Z,5.35
2022-12-11T09:10:35.755Z,5.38
2022-12-11T09:11:37.887Z,5.07
2022-12-11T09:12:39.686Z,5.38
2022-12-11T09:13:41.364Z,5.13
2022-12-11T09:14:42.944Z,5.50
2022-12-11T09:15:44.615Z,5.07
2022-12-11T09:16:46.268Z,5.45
2022-12-11T09:17:47.849Z,5.85
2022-12-11T09:18:50.247Z,5.03
2022-12-11T09:19:51.857Z,5.03
2022-12-11T09:21:07.340Z,5.60
2022-12-11T09:22:11.259Z,4.47
2022-12-11T09:23:12.912Z,5.63
2022-12-11T09:24:15.060Z,5.13
2022-12-11T09:25:16.640Z,4.93
2022-12-11T09:26:18.524Z,4.70
2022-12-11T09:27:21.422Z,4.60
2022-12-11T09:28:23.267Z,4.47
2022-12-11T09:29:25.038Z,5.03
2022-12-11T09:30:26.688Z,4.70
2022-12-11T09:31:30.048Z,4.55
2022-12-11T09:32:31.650Z,5.10
2022-12-11T09:33:33.223Z,5.40
2022-12-11T09:34:34.898Z,4.47
2022-12-11T09:35:36.803Z,4.68
2022-12-11T09:36:39.032Z,5.50
2022-12-11T09:37:40.608Z,5.25
2022-12-11T09:38:44.145Z,4.95
2022-12-11T09:39:45.856Z,6.00
2022-12-11T09:40:47.447Z,5.85
2022-12-11T09:41:58.002Z,6.32
2022-12-11T09:43:22.558Z,6.47
2022-12-11T09:44:24.167Z,5.43
2022-12-11T09:45:25.782Z,5.82
2022-12-11T09:46:32.082Z,5.00
2022-12-11T09:47:37.437Z,5.00
2022-12-11T09:48:40.123Z,6.45
2022-12-11T09:49:43.113Z,5.38
2022-12-11T09:50:44.720Z,6.68
2022-12-11T09:52:23.789Z,7.10
2022-12-11T09:53:36.023Z,6.50
2022-12-11T09:54:40.151Z,5.85
2022-12-11T09:55:53.412Z,5.53
2022-12-11T09:57:02.637Z,5.15
2022-12-11T09:58:04.246Z,4.30
2022-12-11T09:59:19.047Z,4.93
2022-12-11T10:00:39.711Z,5.05
2022-12-11T10:01:51.482Z,5.40
2022-12-11T10:03:04.686Z,5.70
2022-12-11T10:04:10.772Z,5.38
2022-12-11T10:05:32.550Z,5.53
2022-12-11T10:06:42.176Z,4.47
2022-12-11T10:08:00.873Z,4.85
2022-12-11T10:09:31.275Z,4.38
2022-12-11T10:10:43.002Z,4.60
2022-12-11T10:11:57.580Z,4.07
2022-12-11T10:13:07.557Z,4.38
2022-12-11T10:14:24.271Z,4.63
2022-12-11T10:16:00.477Z,4.72
2022-12-11T10:17:13.578Z,4.37
2022-12-11T10:18:17.485Z,4.40
2022-12-11T10:19:25.043Z,4.72
2022-12-11T10:20:39.378Z,5.50
2022-12-11T10:21:41.752Z,5.03
2022-12-11T10:22:43.417Z,4.88
2022-12-11T10:23:50.619Z,5.00
2022-12-11T10:25:12.174Z,4.57
2022-12-11T10:26:18.958Z,5.25
2022-12-11T10:27:22.406Z,4.63
2022-12-11T10:28:24.002Z,4.93
2022-12-11T10:29:25.718Z,4.38
2022-12-11T10:30:34.338Z,5.68
2022-12-11T10:31:56.624Z,5.35
2022-12-11T10:33:16.668Z,4.53
2022-12-11T10:34:37.697Z,4.15
2022-12-11T10:35:42.034Z,4.82
2022-12-11T10:36:43.680Z,4.78
2022-12-11T10:37:45.378Z,5.47
2022-12-11T10:38:47.576Z,4.78
2022-12-11T10:39:49.214Z,4.33
2022-12-11T10:40:53.096Z,4.65
2022-12-11T10:41:55.278Z,5.85
2022-12-11T10:42:57.139Z,6.10
2022-12-11T10:43:59.371Z,5.43
2022-12-11T10:45:02.396Z,5.28
2022-12-11T10:46:04.615Z,4.93
2022-12-11T10:47:12.880Z,4.43
2022-12-11T10:48:14.517Z,5.55
2022-12-11T10:49:35.258Z,4.93
2022-12-11T10:50:36.957Z,5.20
2022-12-11T10:51:38.610Z,5.05
2022-12-11T10:52:44.199Z,5.25
2022-12-11T10:53:50.722Z,4.95
2022-12-11T10:55:16.082Z,4.90
2022-12-11T10:56:27.922Z,4.57
2022-12-11T10:57:34.424Z,4.20
2022-12-11T10:58:38.438Z,5.07
2022-12-11T10:59:42.993Z,4.88
2022-12-11T11:00:44.647Z,4.70
2022-12-11T11:01:46.575Z,4.47
2022-12-11T11:02:48.203Z,5.32
2022-12-11T11:04:24.255Z,4.47
2022-12-11T11:05:30.248Z,4.15
2022-12-11T11:06:31.900Z,4.80
2022-12-11T11:07:34.463Z,4.72
2022-12-11T11:08:44.406Z,4.40
2022-12-11T11:09:47.471Z,4.10
2022-12-11T11:10:58.503Z,4.07
2022-12-11T11:12:04.425Z,4.50
2022-12-11T11:13:12.675Z,5.05
2022-12-11T11:14:18.594Z,4.65
2022-12-11T11:15:25.757Z,4.60
2022-12-11T11:16:27.399Z,4.40
2022-12-11T11:17:34.725Z,4.07
2022-12-11T11:18:36.961Z,6.22
2022-12-11T11:19:38.647Z,4.80
2022-12-11T11:20:44.129Z,7.45
2022-12-11T11:21:50.760Z,5.50
2022-12-11T11:22:58.103Z,5.47
2022-12-11T11:23:59.799Z,5.22
2022-12-11T11:25:01.505Z,5.35
2022-12-11T11:26:07.465Z,5.57
2022-12-11T11:27:37.192Z,5.93
2022-12-11T11:28:41.609Z,6.03
2022-12-11T11:29:43.270Z,6.55
2022-12-11T11:31:01.630Z,5.18
2022-12-11T11:32:41.509Z,4.20
2022-12-11T11:34:05.702Z,5.03
2022-12-11T11:35:13.658Z,4.60
2022-12-11T11:36:29.761Z,5.72
2022-12-11T11:37:32.570Z,4.88
2022-12-11T11:38:46.525Z,5.20
2022-12-11T11:39:48.206Z,5.00
2022-12-11T11:41:13.148Z,5.53
2022-12-11T11:42:21.373Z,4.57
2022-12-11T11:43:29.334Z,4.32
2022-12-11T11:44:37.546Z,5.00
2022-12-11T11:45:59.981Z,5.80
2022-12-11T11:47:12.223Z,4.23
2022-12-11T11:48:43.997Z,4.50
2022-12-11T11:50:07.792Z,4.30
2022-12-11T11:51:34.481Z,3.97
2022-12-11T11:52:55.915Z,3.90
2022-12-11T11:53:58.577Z,3.97
2022-12-11T11:55:22.396Z,4.43
2022-12-11T11:56:31.452Z,4.93
2022-12-11T11:57:42.584Z,3.80
2022-12-11T11:59:02.413Z,4.50
2022-12-11T12:00:18.470Z,4.57
2022-12-11T12:01:20.154Z,4.05
2022-12-11T12:02:21.874Z,4.30
2022-12-11T12:03:24.345Z,4.68
2022-12-11T12:04:34.015Z,4.30
2022-12-11T12:05:46.120Z,4.65
2022-12-11T12:07:04.428Z,4.50
2022-12-11T12:08:06.021Z,4.10
2022-12-11T12:09:23.618Z,4.78
2022-12-11T12:10:44.316Z,4.67
2022-12-11T12:12:06.837Z,4.57
2022-12-11T12:13:47.587Z,4.10
2022-12-11T12:15:04.429Z,4.10
2022-12-11T12:16:29.478Z,4.18
2022-12-11T12:18:08.558Z,4.07
2022-12-11T12:19:24.967Z,4.13
2022-12-11T12:20:57.206Z,5.00
2022-12-11T12:21:58.783Z,4.30
2022-12-11T12:23:12.653Z,4.10
2022-12-11T12:24:34.785Z,4.38
2022-12-11T12:25:41.139Z,4.82
2022-12-11T12:29:07.082Z,4.38
2022-12-11T12:30:12.649Z,3.92
2022-12-11T12:31:38.974Z,4.10
2022-12-11T12:33:05.815Z,5.05
2022-12-11T12:34:22.447Z,4.82
2022-12-11T12:35:37.673Z,5.83
2022-12-11T12:37:14.493Z,4.00
2022-12-11T12:38:42.064Z,4.35
2022-12-11T12:40:11.324Z,4.40
2022-12-11T12:41:22.659Z,5.30
2022-12-11T12:42:24.313Z,5.10
2022-12-11T12:43:48.713Z,4.05
2022-12-11T12:44:59.833Z,5.25
2022-12-11T12:46:04.549Z,4.63
2022-12-11T12:47:10.596Z,4.70
2022-12-11T12:48:12.203Z,4.45
2022-12-11T12:49:49.634Z,4.03
2022-12-11T12:50:51.554Z,3.85
2022-12-11T12:51:53.288Z,3.50
2022-12-11T12:52:55.091Z,4.22
2022-12-11T12:53:58.797Z,4.22
2022-12-11T12:55:27.348Z,4.05
2022-12-11T12:56:29.978Z,4.32
2022-12-11T12:57:32.994Z,4.55
2022-12-11T12:58:34.874Z,4.70
2022-12-11T12:59:36.515Z,4.18
2022-12-11T13:00:42.667Z,4.22
2022-12-11T13:01:52.373Z,4.88
2022-12-11T13:02:56.105Z,5.45
2022-12-11T13:04:03.132Z,4.90
2022-12-11T13:05:07.792Z,4.32
2022-12-11T13:06:09.517Z,4.38
2022-12-11T13:07:17.704Z,6.43
2022-12-11T13:08:24.829Z,4.05
2022-12-11T13:09:27.006Z,4.80
2022-12-11T13:10:35.994Z,5.40
2022-12-11T13:11:37.697Z,4.10
2022-12-11T13:12:44.631Z,4.95
2022-12-11T13:14:01.479Z,4.90
2022-12-11T13:15:03.300Z,5.05
2022-12-11T13:16:17.134Z,4.65
2022-12-11T13:17:21.638Z,4.68
2022-12-11T13:18:35.176Z,4.88
2022-12-11T13:19:42.357Z,4.80
2022-12-11T13:20:48.428Z,5.00
2022-12-11T13:22:06.472Z,4.97
2022-12-11T13:23:14.946Z,5.18
2022-12-11T13:24:25.134Z,5.15
2022-12-11T13:25:31.495Z,4.70
2022-12-11T13:26:33.209Z,4.82
2022-12-11T13:27:34.790Z,4.28
2022-12-11T13:28:39.870Z,4.55
2022-12-11T13:29:41.983Z,5.05
2022-12-11T13:30:43.594Z,5.43
2022-12-11T13:31:45.793Z,4.87
2022-12-11T13:32:55.795Z,5.15
2022-12-11T13:33:58.120Z,4.65
2022-12-11T13:35:00.492Z,5.05
2022-12-11T13:36:24.106Z,5.13
2022-12-11T13:37:36.623Z,4.35
2022-12-11T13:38:39.390Z,4.50
2022-12-11T13:39:41.052Z,5.20
2022-12-11T13:40:43.446Z,4.78
2022-12-11T13:41:51.037Z,4.95
2022-12-11T13:42:59.930Z,4.67
2022-12-11T13:44:01.737Z,4.45
2022-12-11T13:45:03.846Z,4.88
2022-12-11T13:46:07.368Z,4.75
2022-12-11T13:47:13.143Z,5.15
2022-12-11T13:48:51.899Z,5.38
2022-12-11T13:49:55.992Z,5.53
2022-12-11T13:50:57.594Z,5.10
2022-12-11T13:51:59.579Z,6.38
2022-12-11T13:53:02.763Z,5.65
2022-12-11T13:54:17.342Z,5.78
2022-12-11T13:55:25.076Z,6.07
2022-12-11T13:56:26.884Z,5.80
2022-12-11T13:57:29.017Z,5.80
2022-12-11T13:58:33.883Z,5.72
2022-12-11T13:59:37.014Z,6.45
2022-12-11T14:00:38.636Z,5.95
2022-12-11T14:01:40.304Z,5.82
2022-12-11T14:02:42.745Z,6.00
2022-12-11T14:04:11.176Z,6.28
2022-12-11T14:05:13.338Z,5.70
2022-12-11T14:06:18.833Z,5.35
2022-12-11T14:07:25.454Z,5.40
2022-12-11T14:08:31.745Z,5.28
2022-12-11T14:09:33.396Z,5.18
2022-12-11T14:10:35.037Z,5.50
2022-12-11T14:11:38.238Z,5.80
2022-12-11T14:12:40.103Z,5.75
2022-12-11T14:13:42.029Z,6.10
2022-12-11T14:14:45.737Z,5.45
2022-12-11T14:15:47.556Z,5.68
2022-12-11T14:16:50.518Z,6.20
2022-12-11T14:17:52.541Z,6.18
2022-12-11T14:18:55.046Z,5.63
2022-12-11T14:19:58.296Z,5.63
2022-12-11T14:21:04.489Z,6.40
2022-12-11T14:22:08.082Z,6.63
2022-12-11T14:23:17.637Z,6.10
2022-12-11T14:24:19.648Z,6.82
2022-12-11T14:25:26.606Z,6.65
2022-12-11T14:26:30.170Z,6.82